sensor_id;sensor_type;location;lat;lon;timestamp;temperature;humidity
14188;DHT22;7175;51.978;5.330;2023-10-19T00:00:06;11.20;99.90
14188;DHT22;7175;51.978;5.330;2023-10-19T00:02:50;11.20;99.90
14188;DHT22;7175;51.978;5.330;2023-10-19T00:05:18;11.20;99.90
14188;DHT22;7175;51.978;5.330;2023-10-19T00:07:47;11.20;99.90
14188;DHT22;7175;51.978;5.330;2023-10-19T00:10:14;11.20;99.90
14188;DHT22;7175;51.978;5.330;2023-10-19T00:12:44;11.20;99.90
14188;DHT22;7175;51.978;5.330;2023-10-19T00:15:17;11.30;99.90
14188;DHT22;7175;51.978;5.330;2023-10-19T00:17:51;11.30;99.90
14188;DHT22;7175;51.978;5.330;2023-10-19T00:20:22;11.30;99.90
14188;DHT22;7175;51.978;5.330;2023-10-19T00:23:16;11.30;99.90
14188;DHT22;7175;51.978;5.330;2023-10-19T00:25:45;11.40;99.90
14188;DHT22;7175;51.978;5.330;2023-10-19T00:28:18;11.50;99.90
14188;DHT22;7175;51.978;5.330;2023-10-19T00:30:46;11.50;99.90
14188;DHT22;7175;51.978;5.330;2023-10-19T00:33:17;11.50;99.90
14188;DHT22;7175;51.978;5.330;2023-10-19T00:35:47;11.50;99.90
14188;DHT22;7175;51.978;5.330;2023-10-19T00:38:24;11.50;99.90
14188;DHT22;7175;51.978;5.330;2023-10-19T00:41:07;11.60;99.90
14188;DHT22;7175;51.978;5.330;2023-10-19T00:43:39;11.60;99.90
14188;DHT22;7175;51.978;5.330;2023-10-19T00:46:12;11.60;99.90
14188;DHT22;7175;51.978;5.330;2023-10-19T00:49:08;11.60;99.90
14188;DHT22;7175;51.978;5.330;2023-10-19T00:51:45;11.70;99.90
14188;DHT22;7175;51.978;5.330;2023-10-19T00:54:25;11.70;99.90
14188;DHT22;7175;51.978;5.330;2023-10-19T00:56:59;11.70;99.90
14188;DHT22;7175;51.978;5.330;2023-10-19T00:59:31;11.80;99.90
14188;DHT22;7175;51.978;5.330;2023-10-19T01:02:03;11.80;99.90
14188;DHT22;7175;51.978;5.330;2023-10-19T01:04:46;11.80;99.90
14188;DHT22;7175;51.978;5.330;2023-10-19T01:07:18;11.90;99.90
14188;DHT22;7175;51.978;5.330;2023-10-19T01:09:50;11.90;99.90
14188;DHT22;7175;51.978;5.330;2023-10-19T01:12:20;11.90;99.90
14188;DHT22;7175;51.978;5.330;2023-10-19T01:15:05;12.00;99.90
14188;DHT22;7175;51.978;5.330;2023-10-19T01:17:35;12.00;99.90
14188;DHT22;7175;51.978;5.330;2023-10-19T01:20:10;12.10;99.90
14188;DHT22;7175;51.978;5.330;2023-10-19T01:22:52;12.00;99.90
14188;DHT22;7175;51.978;5.330;2023-10-19T01:25:49;12.20;99.90
14188;DHT22;7175;51.978;5.330;2023-10-19T01:28:27;12.30;99.90
14188;DHT22;7175;51.978;5.330;2023-10-19T01:31:10;12.30;99.90
14188;DHT22;7175;51.978;5.330;2023-10-19T01:33:42;12.40;99.90
14188;DHT22;7175;51.978;5.330;2023-10-19T01:36:12;12.40;99.90
14188;DHT22;7175;51.978;5.330;2023-10-19T01:38:53;12.50;99.90
14188;DHT22;7175;51.978;5.330;2023-10-19T01:41:23;12.50;99.90
14188;DHT22;7175;51.978;5.330;2023-10-19T01:43:51;12.50;99.90
14188;DHT22;7175;51.978;5.330;2023-10-19T01:46:21;12.70;99.90
14188;DHT22;7175;51.978;5.330;2023-10-19T01:48:50;12.70;99.90
14188;DHT22;7175;51.978;5.330;2023-10-19T01:51:22;12.70;99.90
14188;DHT22;7175;51.978;5.330;2023-10-19T01:53:49;12.80;99.90
14188;DHT22;7175;51.978;5.330;2023-10-19T01:56:19;12.80;99.90
14188;DHT22;7175;51.978;5.330;2023-10-19T01:58:49;12.90;99.90
14188;DHT22;7175;51.978;5.330;2023-10-19T02:01:19;13.00;99.90
14188;DHT22;7175;51.978;5.330;2023-10-19T02:03:49;13.00;99.90
14188;DHT22;7175;51.978;5.330;2023-10-19T02:06:21;13.00;99.90
14188;DHT22;7175;51.978;5.330;2023-10-19T02:08:55;13.10;99.90
14188;DHT22;7175;51.978;5.330;2023-10-19T02:11:28;13.00;99.90
14188;DHT22;7175;51.978;5.330;2023-10-19T02:13:56;13.00;99.90
14188;DHT22;7175;51.978;5.330;2023-10-19T02:16:27;13.10;99.90
14188;DHT22;7175;51.978;5.330;2023-10-19T02:18:56;13.10;99.90
14188;DHT22;7175;51.978;5.330;2023-10-19T02:21:23;13.10;99.90
14188;DHT22;7175;51.978;5.330;2023-10-19T02:23:54;13.20;99.90
14188;DHT22;7175;51.978;5.330;2023-10-19T02:26:21;13.20;99.90
14188;DHT22;7175;51.978;5.330;2023-10-19T02:28:54;13.20;99.90
14188;DHT22;7175;51.978;5.330;2023-10-19T02:31:23;13.30;99.90
14188;DHT22;7175;51.978;5.330;2023-10-19T02:33:53;13.40;99.90
14188;DHT22;7175;51.978;5.330;2023-10-19T02:36:25;13.40;99.90
14188;DHT22;7175;51.978;5.330;2023-10-19T02:38:55;13.40;99.90
14188;DHT22;7175;51.978;5.330;2023-10-19T02:41:26;13.30;99.90
14188;DHT22;7175;51.978;5.330;2023-10-19T02:43:56;13.30;99.90
14188;DHT22;7175;51.978;5.330;2023-10-19T02:46:29;13.40;99.90
14188;DHT22;7175;51.978;5.330;2023-10-19T02:49:00;13.50;99.90
14188;DHT22;7175;51.978;5.330;2023-10-19T02:51:27;13.60;99.90
14188;DHT22;7175;51.978;5.330;2023-10-19T02:53:56;13.60;99.90
14188;DHT22;7175;51.978;5.330;2023-10-19T02:56:23;13.70;99.90
14188;DHT22;7175;51.978;5.330;2023-10-19T02:58:53;13.70;99.90
14188;DHT22;7175;51.978;5.330;2023-10-19T03:01:21;13.70;99.90
14188;DHT22;7175;51.978;5.330;2023-10-19T03:03:51;13.80;99.90
14188;DHT22;7175;51.978;5.330;2023-10-19T03:06:21;13.80;99.90
14188;DHT22;7175;51.978;5.330;2023-10-19T03:08:49;13.90;99.90
14188;DHT22;7175;51.978;5.330;2023-10-19T03:11:24;13.80;99.90
14188;DHT22;7175;51.978;5.330;2023-10-19T03:13:52;13.90;99.90
14188;DHT22;7175;51.978;5.330;2023-10-19T03:16:21;13.90;99.90
14188;DHT22;7175;51.978;5.330;2023-10-19T03:18:50;13.90;99.90
14188;DHT22;7175;51.978;5.330;2023-10-19T03:21:17;13.90;99.90
14188;DHT22;7175;51.978;5.330;2023-10-19T03:23:46;13.80;99.90
14188;DHT22;7175;51.978;5.330;2023-10-19T03:26:13;13.90;99.90
14188;DHT22;7175;51.978;5.330;2023-10-19T03:28:56;13.90;99.90
14188;DHT22;7175;51.978;5.330;2023-10-19T03:31:27;14.00;99.90
14188;DHT22;7175;51.978;5.330;2023-10-19T03:33:56;13.90;99.90
14188;DHT22;7175;51.978;5.330;2023-10-19T03:36:26;14.00;99.90
14188;DHT22;7175;51.978;5.330;2023-10-19T03:38:55;14.00;99.90
14188;DHT22;7175;51.978;5.330;2023-10-19T03:41:26;14.00;99.90
14188;DHT22;7175;51.978;5.330;2023-10-19T03:43:54;14.00;99.90
14188;DHT22;7175;51.978;5.330;2023-10-19T03:46:24;14.10;99.90
14188;DHT22;7175;51.978;5.330;2023-10-19T03:48:57;14.10;99.90
14188;DHT22;7175;51.978;5.330;2023-10-19T03:51:31;14.10;99.90
14188;DHT22;7175;51.978;5.330;2023-10-19T03:54:07;14.10;99.90
14188;DHT22;7175;51.978;5.330;2023-10-19T03:56:45;14.30;99.90
14188;DHT22;7175;51.978;5.330;2023-10-19T03:59:14;14.30;99.90
14188;DHT22;7175;51.978;5.330;2023-10-19T04:01:44;14.30;99.90
14188;DHT22;7175;51.978;5.330;2023-10-19T04:04:13;14.40;99.90
14188;DHT22;7175;51.978;5.330;2023-10-19T04:06:43;14.30;99.90
14188;DHT22;7175;51.978;5.330;2023-10-19T04:09:14;14.50;99.90
14188;DHT22;7175;51.978;5.330;2023-10-19T04:11:43;14.50;99.90
14188;DHT22;7175;51.978;5.330;2023-10-19T04:14:18;14.50;99.90
14188;DHT22;7175;51.978;5.330;2023-10-19T04:16:47;14.50;99.90
14188;DHT22;7175;51.978;5.330;2023-10-19T04:19:17;14.50;99.90
14188;DHT22;7175;51.978;5.330;2023-10-19T04:21:45;14.40;99.90
14188;DHT22;7175;51.978;5.330;2023-10-19T04:24:14;14.30;99.90
14188;DHT22;7175;51.978;5.330;2023-10-19T04:26:44;14.40;99.90
14188;DHT22;7175;51.978;5.330;2023-10-19T04:29:12;14.40;99.90
14188;DHT22;7175;51.978;5.330;2023-10-19T04:31:44;14.40;99.90
14188;DHT22;7175;51.978;5.330;2023-10-19T04:34:18;14.30;99.90
14188;DHT22;7175;51.978;5.330;2023-10-19T04:36:47;14.20;99.90
14188;DHT22;7175;51.978;5.330;2023-10-19T04:39:16;14.20;99.90
14188;DHT22;7175;51.978;5.330;2023-10-19T04:41:46;14.10;99.90
14188;DHT22;7175;51.978;5.330;2023-10-19T04:44:16;14.10;99.90
14188;DHT22;7175;51.978;5.330;2023-10-19T04:46:44;14.20;99.90
14188;DHT22;7175;51.978;5.330;2023-10-19T04:49:13;14.20;99.90
14188;DHT22;7175;51.978;5.330;2023-10-19T04:51:42;14.20;99.90
14188;DHT22;7175;51.978;5.330;2023-10-19T04:54:10;14.20;99.90
14188;DHT22;7175;51.978;5.330;2023-10-19T04:56:38;14.20;99.90
14188;DHT22;7175;51.978;5.330;2023-10-19T04:59:06;14.20;99.90
14188;DHT22;7175;51.978;5.330;2023-10-19T05:01:34;14.30;99.90
14188;DHT22;7175;51.978;5.330;2023-10-19T05:04:03;14.30;99.90
14188;DHT22;7175;51.978;5.330;2023-10-19T05:06:31;14.30;99.90
14188;DHT22;7175;51.978;5.330;2023-10-19T05:09:00;14.30;99.90
14188;DHT22;7175;51.978;5.330;2023-10-19T05:11:30;14.30;99.90
14188;DHT22;7175;51.978;5.330;2023-10-19T05:13:58;14.30;99.90
14188;DHT22;7175;51.978;5.330;2023-10-19T05:16:26;14.30;99.90
14188;DHT22;7175;51.978;5.330;2023-10-19T05:18:54;14.30;99.90
14188;DHT22;7175;51.978;5.330;2023-10-19T05:21:22;14.30;99.90
14188;DHT22;7175;51.978;5.330;2023-10-19T05:23:50;14.40;99.90
14188;DHT22;7175;51.978;5.330;2023-10-19T05:26:20;14.40;99.90
14188;DHT22;7175;51.978;5.330;2023-10-19T05:28:48;14.40;99.90
14188;DHT22;7175;51.978;5.330;2023-10-19T05:31:16;14.50;99.90
14188;DHT22;7175;51.978;5.330;2023-10-19T05:33:44;14.40;99.90
14188;DHT22;7175;51.978;5.330;2023-10-19T05:36:15;14.50;99.90
14188;DHT22;7175;51.978;5.330;2023-10-19T05:38:44;14.50;99.90
14188;DHT22;7175;51.978;5.330;2023-10-19T05:41:12;14.50;99.90
14188;DHT22;7175;51.978;5.330;2023-10-19T05:43:42;14.50;99.90
14188;DHT22;7175;51.978;5.330;2023-10-19T05:46:11;14.50;99.90
14188;DHT22;7175;51.978;5.330;2023-10-19T05:48:40;14.50;99.90
14188;DHT22;7175;51.978;5.330;2023-10-19T05:51:08;14.60;99.90
14188;DHT22;7175;51.978;5.330;2023-10-19T05:53:36;14.50;99.90
14188;DHT22;7175;51.978;5.330;2023-10-19T05:56:05;14.60;99.90
14188;DHT22;7175;51.978;5.330;2023-10-19T05:58:33;14.60;99.90
14188;DHT22;7175;51.978;5.330;2023-10-19T06:01:06;14.50;99.90
14188;DHT22;7175;51.978;5.330;2023-10-19T06:03:34;14.60;99.90
14188;DHT22;7175;51.978;5.330;2023-10-19T06:06:03;14.60;99.90
14188;DHT22;7175;51.978;5.330;2023-10-19T06:08:31;14.60;99.90
14188;DHT22;7175;51.978;5.330;2023-10-19T06:10:59;14.60;99.90
14188;DHT22;7175;51.978;5.330;2023-10-19T06:13:27;14.60;99.90
14188;DHT22;7175;51.978;5.330;2023-10-19T06:15:56;14.60;99.90
14188;DHT22;7175;51.978;5.330;2023-10-19T06:18:26;14.70;99.90
14188;DHT22;7175;51.978;5.330;2023-10-19T06:20:56;14.70;99.90
14188;DHT22;7175;51.978;5.330;2023-10-19T06:23:25;14.70;99.90
14188;DHT22;7175;51.978;5.330;2023-10-19T06:25:53;14.60;99.90
14188;DHT22;7175;51.978;5.330;2023-10-19T06:28:21;14.60;99.90
14188;DHT22;7175;51.978;5.330;2023-10-19T06:30:49;14.60;99.90
14188;DHT22;7175;51.978;5.330;2023-10-19T06:33:17;14.70;99.90
14188;DHT22;7175;51.978;5.330;2023-10-19T06:35:47;14.60;99.90
14188;DHT22;7175;51.978;5.330;2023-10-19T06:38:15;14.60;99.90
14188;DHT22;7175;51.978;5.330;2023-10-19T06:40:45;14.60;99.90
14188;DHT22;7175;51.978;5.330;2023-10-19T06:43:14;14.60;99.90
14188;DHT22;7175;51.978;5.330;2023-10-19T06:45:44;14.60;99.90
14188;DHT22;7175;51.978;5.330;2023-10-19T06:48:12;14.60;99.90
14188;DHT22;7175;51.978;5.330;2023-10-19T06:50:41;14.60;99.90
14188;DHT22;7175;51.978;5.330;2023-10-19T06:53:15;14.60;99.90
14188;DHT22;7175;51.978;5.330;2023-10-19T06:55:43;14.60;99.90
14188;DHT22;7175;51.978;5.330;2023-10-19T06:58:11;14.60;99.90
14188;DHT22;7175;51.978;5.330;2023-10-19T07:00:41;14.50;99.90
14188;DHT22;7175;51.978;5.330;2023-10-19T07:03:13;14.60;99.90
14188;DHT22;7175;51.978;5.330;2023-10-19T07:05:42;14.60;99.90
14188;DHT22;7175;51.978;5.330;2023-10-19T07:08:09;14.70;99.90
14188;DHT22;7175;51.978;5.330;2023-10-19T07:10:39;14.70;99.90
14188;DHT22;7175;51.978;5.330;2023-10-19T07:13:07;14.70;99.90
14188;DHT22;7175;51.978;5.330;2023-10-19T07:15:35;14.70;99.90
14188;DHT22;7175;51.978;5.330;2023-10-19T07:18:04;14.80;99.90
14188;DHT22;7175;51.978;5.330;2023-10-19T07:20:33;14.80;99.90
14188;DHT22;7175;51.978;5.330;2023-10-19T07:23:03;14.80;99.90
14188;DHT22;7175;51.978;5.330;2023-10-19T07:25:37;14.90;99.90
14188;DHT22;7175;51.978;5.330;2023-10-19T07:28:12;14.90;99.90
14188;DHT22;7175;51.978;5.330;2023-10-19T07:30:41;15.00;99.90
14188;DHT22;7175;51.978;5.330;2023-10-19T07:33:10;15.00;99.90
14188;DHT22;7175;51.978;5.330;2023-10-19T07:35:45;15.00;99.90
14188;DHT22;7175;51.978;5.330;2023-10-19T07:38:14;15.00;99.90
14188;DHT22;7175;51.978;5.330;2023-10-19T07:40:43;15.10;99.90
14188;DHT22;7175;51.978;5.330;2023-10-19T07:43:13;15.10;99.90
14188;DHT22;7175;51.978;5.330;2023-10-19T07:45:41;15.10;99.90
14188;DHT22;7175;51.978;5.330;2023-10-19T07:48:11;15.10;99.90
14188;DHT22;7175;51.978;5.330;2023-10-19T07:50:40;15.10;99.90
14188;DHT22;7175;51.978;5.330;2023-10-19T07:53:09;15.20;99.90
14188;DHT22;7175;51.978;5.330;2023-10-19T07:55:37;15.20;99.90
14188;DHT22;7175;51.978;5.330;2023-10-19T07:58:06;15.20;99.90
14188;DHT22;7175;51.978;5.330;2023-10-19T08:00:36;15.20;99.90
14188;DHT22;7175;51.978;5.330;2023-10-19T08:03:05;15.20;99.90
14188;DHT22;7175;51.978;5.330;2023-10-19T08:05:34;15.30;99.90
14188;DHT22;7175;51.978;5.330;2023-10-19T08:08:03;15.30;99.90
14188;DHT22;7175;51.978;5.330;2023-10-19T08:10:33;15.40;99.90
14188;DHT22;7175;51.978;5.330;2023-10-19T08:13:02;15.40;99.90
14188;DHT22;7175;51.978;5.330;2023-10-19T08:15:30;15.50;99.90
14188;DHT22;7175;51.978;5.330;2023-10-19T08:18:00;15.60;99.90
14188;DHT22;7175;51.978;5.330;2023-10-19T08:20:28;15.50;99.90
14188;DHT22;7175;51.978;5.330;2023-10-19T08:23:01;15.60;99.90
14188;DHT22;7175;51.978;5.330;2023-10-19T08:25:30;15.60;99.90
14188;DHT22;7175;51.978;5.330;2023-10-19T08:28:01;15.60;99.90
14188;DHT22;7175;51.978;5.330;2023-10-19T08:30:29;15.70;99.90
14188;DHT22;7175;51.978;5.330;2023-10-19T08:32:57;15.70;99.90
14188;DHT22;7175;51.978;5.330;2023-10-19T08:35:26;15.70;99.90
14188;DHT22;7175;51.978;5.330;2023-10-19T08:37:56;15.70;99.90
14188;DHT22;7175;51.978;5.330;2023-10-19T08:40:26;15.80;99.90
14188;DHT22;7175;51.978;5.330;2023-10-19T08:42:55;15.80;99.90
14188;DHT22;7175;51.978;5.330;2023-10-19T08:45:26;15.80;99.90
14188;DHT22;7175;51.978;5.330;2023-10-19T08:48:00;15.80;99.90
14188;DHT22;7175;51.978;5.330;2023-10-19T08:50:31;15.80;99.90
14188;DHT22;7175;51.978;5.330;2023-10-19T08:53:01;15.80;99.90
14188;DHT22;7175;51.978;5.330;2023-10-19T08:55:31;15.90;99.90
14188;DHT22;7175;51.978;5.330;2023-10-19T08:58:15;15.90;99.90
14188;DHT22;7175;51.978;5.330;2023-10-19T09:00:46;16.10;99.90
14188;DHT22;7175;51.978;5.330;2023-10-19T09:03:23;16.20;99.90
14188;DHT22;7175;51.978;5.330;2023-10-19T09:05:54;16.30;99.90
14188;DHT22;7175;51.978;5.330;2023-10-19T09:08:23;16.40;99.90
14188;DHT22;7175;51.978;5.330;2023-10-19T09:10:52;16.50;99.90
14188;DHT22;7175;51.978;5.330;2023-10-19T09:13:22;16.60;99.90
14188;DHT22;7175;51.978;5.330;2023-10-19T09:15:52;16.60;99.90
14188;DHT22;7175;51.978;5.330;2023-10-19T09:18:24;16.60;99.90
14188;DHT22;7175;51.978;5.330;2023-10-19T09:20:57;16.60;99.90
14188;DHT22;7175;51.978;5.330;2023-10-19T09:23:36;16.60;99.90
14188;DHT22;7175;51.978;5.330;2023-10-19T09:26:04;16.60;99.90
14188;DHT22;7175;51.978;5.330;2023-10-19T09:28:35;17.00;99.90
14188;DHT22;7175;51.978;5.330;2023-10-19T09:31:04;17.20;99.90
14188;DHT22;7175;51.978;5.330;2023-10-19T09:33:40;17.40;99.90
14188;DHT22;7175;51.978;5.330;2023-10-19T09:36:13;17.60;99.90
14188;DHT22;7175;51.978;5.330;2023-10-19T09:38:45;17.50;99.90
14188;DHT22;7175;51.978;5.330;2023-10-19T09:41:17;17.30;99.90
14188;DHT22;7175;51.978;5.330;2023-10-19T09:43:46;17.50;99.90
14188;DHT22;7175;51.978;5.330;2023-10-19T09:46:21;17.50;99.90
14188;DHT22;7175;51.978;5.330;2023-10-19T09:48:50;17.60;99.90
14188;DHT22;7175;51.978;5.330;2023-10-19T09:51:21;17.60;99.90
14188;DHT22;7175;51.978;5.330;2023-10-19T09:53:53;17.80;99.90
14188;DHT22;7175;51.978;5.330;2023-10-19T09:56:28;18.10;99.90
14188;DHT22;7175;51.978;5.330;2023-10-19T09:59:02;18.00;99.90
14188;DHT22;7175;51.978;5.330;2023-10-19T10:02:06;17.80;99.90
14188;DHT22;7175;51.978;5.330;2023-10-19T10:04:35;17.80;99.90
14188;DHT22;7175;51.978;5.330;2023-10-19T10:07:06;17.70;99.90
14188;DHT22;7175;51.978;5.330;2023-10-19T10:09:35;17.60;99.90
14188;DHT22;7175;51.978;5.330;2023-10-19T10:12:17;17.60;99.90
14188;DHT22;7175;51.978;5.330;2023-10-19T10:14:59;17.70;99.90
14188;DHT22;7175;51.978;5.330;2023-10-19T10:17:30;17.80;99.90
14188;DHT22;7175;51.978;5.330;2023-10-19T10:20:28;17.80;99.90
14188;DHT22;7175;51.978;5.330;2023-10-19T10:23:17;17.80;99.90
14188;DHT22;7175;51.978;5.330;2023-10-19T10:25:49;17.90;99.90
14188;DHT22;7175;51.978;5.330;2023-10-19T10:28:18;18.00;99.90
14188;DHT22;7175;51.978;5.330;2023-10-19T10:31:11;18.00;99.90
14188;DHT22;7175;51.978;5.330;2023-10-19T10:33:45;18.10;99.90
14188;DHT22;7175;51.978;5.330;2023-10-19T10:36:15;17.90;99.90
14188;DHT22;7175;51.978;5.330;2023-10-19T10:38:48;17.90;99.90
14188;DHT22;7175;51.978;5.330;2023-10-19T10:41:20;17.90;99.90
14188;DHT22;7175;51.978;5.330;2023-10-19T10:43:52;17.90;99.90
14188;DHT22;7175;51.978;5.330;2023-10-19T10:46:22;17.90;99.90
14188;DHT22;7175;51.978;5.330;2023-10-19T10:48:56;18.00;99.90
14188;DHT22;7175;51.978;5.330;2023-10-19T10:51:27;18.10;99.90
14188;DHT22;7175;51.978;5.330;2023-10-19T10:53:58;18.10;99.90
14188;DHT22;7175;51.978;5.330;2023-10-19T10:56:26;18.20;99.90
14188;DHT22;7175;51.978;5.330;2023-10-19T10:58:55;18.30;99.90
14188;DHT22;7175;51.978;5.330;2023-10-19T11:01:31;18.50;99.90
14188;DHT22;7175;51.978;5.330;2023-10-19T11:04:08;19.00;99.90
14188;DHT22;7175;51.978;5.330;2023-10-19T11:06:50;19.40;99.90
14188;DHT22;7175;51.978;5.330;2023-10-19T11:09:21;19.60;99.90
14188;DHT22;7175;51.978;5.330;2023-10-19T11:11:49;19.30;99.90
14188;DHT22;7175;51.978;5.330;2023-10-19T11:14:19;19.20;99.90
14188;DHT22;7175;51.978;5.330;2023-10-19T11:16:49;19.10;99.90
14188;DHT22;7175;51.978;5.330;2023-10-19T11:19:17;19.00;99.90
14188;DHT22;7175;51.978;5.330;2023-10-19T11:21:53;19.10;99.90
14188;DHT22;7175;51.978;5.330;2023-10-19T11:24:27;19.50;99.90
14188;DHT22;7175;51.978;5.330;2023-10-19T11:27:00;19.90;99.90
14188;DHT22;7175;51.978;5.330;2023-10-19T11:29:29;19.80;99.90
14188;DHT22;7175;51.978;5.330;2023-10-19T11:31:57;20.10;99.90
14188;DHT22;7175;51.978;5.330;2023-10-19T11:34:27;20.00;99.90
14188;DHT22;7175;51.978;5.330;2023-10-19T11:36:56;19.70;99.90
14188;DHT22;7175;51.978;5.330;2023-10-19T11:39:28;19.60;99.90
14188;DHT22;7175;51.978;5.330;2023-10-19T11:41:56;19.90;99.90
14188;DHT22;7175;51.978;5.330;2023-10-19T11:44:25;19.80;99.90
14188;DHT22;7175;51.978;5.330;2023-10-19T11:46:53;19.60;99.90
14188;DHT22;7175;51.978;5.330;2023-10-19T11:49:21;19.50;99.90
14188;DHT22;7175;51.978;5.330;2023-10-19T11:51:52;19.40;99.90
14188;DHT22;7175;51.978;5.330;2023-10-19T11:54:21;19.40;99.90
14188;DHT22;7175;51.978;5.330;2023-10-19T11:56:50;19.20;99.90
14188;DHT22;7175;51.978;5.330;2023-10-19T11:59:19;19.10;99.90
14188;DHT22;7175;51.978;5.330;2023-10-19T12:01:47;19.10;99.90
14188;DHT22;7175;51.978;5.330;2023-10-19T12:04:16;19.10;99.90
14188;DHT22;7175;51.978;5.330;2023-10-19T12:06:44;19.10;99.90
14188;DHT22;7175;51.978;5.330;2023-10-19T12:09:13;19.00;99.90
14188;DHT22;7175;51.978;5.330;2023-10-19T12:11:42;18.90;99.90
14188;DHT22;7175;51.978;5.330;2023-10-19T12:14:15;18.90;99.90
14188;DHT22;7175;51.978;5.330;2023-10-19T12:16:44;18.90;99.90
14188;DHT22;7175;51.978;5.330;2023-10-19T12:19:12;18.90;99.90
14188;DHT22;7175;51.978;5.330;2023-10-19T12:21:41;18.80;99.90
14188;DHT22;7175;51.978;5.330;2023-10-19T12:24:09;18.80;99.90
14188;DHT22;7175;51.978;5.330;2023-10-19T12:26:37;18.80;99.90
14188;DHT22;7175;51.978;5.330;2023-10-19T12:29:06;18.80;99.90
14188;DHT22;7175;51.978;5.330;2023-10-19T12:31:39;18.70;99.90
14188;DHT22;7175;51.978;5.330;2023-10-19T12:34:07;18.70;99.90
14188;DHT22;7175;51.978;5.330;2023-10-19T12:36:38;18.60;99.90
14188;DHT22;7175;51.978;5.330;2023-10-19T12:39:08;18.60;99.90
14188;DHT22;7175;51.978;5.330;2023-10-19T12:41:42;18.60;99.90
14188;DHT22;7175;51.978;5.330;2023-10-19T12:44:10;18.50;99.90
14188;DHT22;7175;51.978;5.330;2023-10-19T12:46:40;18.50;99.90
14188;DHT22;7175;51.978;5.330;2023-10-19T12:49:08;18.40;99.90
14188;DHT22;7175;51.978;5.330;2023-10-19T12:51:41;18.30;99.90
14188;DHT22;7175;51.978;5.330;2023-10-19T12:54:11;18.20;99.90
14188;DHT22;7175;51.978;5.330;2023-10-19T12:56:40;18.10;99.90
14188;DHT22;7175;51.978;5.330;2023-10-19T12:59:08;18.10;99.90
14188;DHT22;7175;51.978;5.330;2023-10-19T13:01:36;18.10;99.90
14188;DHT22;7175;51.978;5.330;2023-10-19T13:04:07;18.00;99.90
14188;DHT22;7175;51.978;5.330;2023-10-19T13:06:43;18.00;99.90
14188;DHT22;7175;51.978;5.330;2023-10-19T13:09:14;17.90;99.90
14188;DHT22;7175;51.978;5.330;2023-10-19T13:11:48;17.80;99.90
14188;DHT22;7175;51.978;5.330;2023-10-19T13:14:18;17.70;99.90
14188;DHT22;7175;51.978;5.330;2023-10-19T13:16:46;17.80;99.90
14188;DHT22;7175;51.978;5.330;2023-10-19T13:19:18;17.70;99.90
14188;DHT22;7175;51.978;5.330;2023-10-19T13:21:47;17.70;99.90
14188;DHT22;7175;51.978;5.330;2023-10-19T13:24:18;17.60;99.90
14188;DHT22;7175;51.978;5.330;2023-10-19T13:26:47;17.60;99.90
14188;DHT22;7175;51.978;5.330;2023-10-19T13:29:15;17.60;99.90
14188;DHT22;7175;51.978;5.330;2023-10-19T13:31:44;17.60;99.90
14188;DHT22;7175;51.978;5.330;2023-10-19T13:34:17;17.50;99.90
14188;DHT22;7175;51.978;5.330;2023-10-19T13:36:45;17.50;99.90
14188;DHT22;7175;51.978;5.330;2023-10-19T13:39:14;17.60;99.90
14188;DHT22;7175;51.978;5.330;2023-10-19T13:41:43;17.60;99.90
14188;DHT22;7175;51.978;5.330;2023-10-19T13:44:11;17.60;99.90
14188;DHT22;7175;51.978;5.330;2023-10-19T13:46:40;17.70;99.90
14188;DHT22;7175;51.978;5.330;2023-10-19T13:49:08;17.70;99.90
14188;DHT22;7175;51.978;5.330;2023-10-19T13:51:39;17.70;99.90
14188;DHT22;7175;51.978;5.330;2023-10-19T13:54:07;17.60;99.90
14188;DHT22;7175;51.978;5.330;2023-10-19T13:56:35;17.70;99.90
14188;DHT22;7175;51.978;5.330;2023-10-19T13:59:03;17.60;99.90
14188;DHT22;7175;51.978;5.330;2023-10-19T14:01:32;17.50;99.90
14188;DHT22;7175;51.978;5.330;2023-10-19T14:04:00;17.50;99.90
14188;DHT22;7175;51.978;5.330;2023-10-19T14:06:29;17.50;99.90
14188;DHT22;7175;51.978;5.330;2023-10-19T14:08:58;17.40;99.90
14188;DHT22;7175;51.978;5.330;2023-10-19T14:11:26;17.30;99.90
14188;DHT22;7175;51.978;5.330;2023-10-19T14:13:54;17.30;99.90
14188;DHT22;7175;51.978;5.330;2023-10-19T14:16:22;17.30;99.90
14188;DHT22;7175;51.978;5.330;2023-10-19T14:18:52;17.30;99.90
14188;DHT22;7175;51.978;5.330;2023-10-19T14:21:20;17.30;99.90
14188;DHT22;7175;51.978;5.330;2023-10-19T14:23:50;17.20;99.90
14188;DHT22;7175;51.978;5.330;2023-10-19T14:26:19;17.20;99.90
14188;DHT22;7175;51.978;5.330;2023-10-19T14:28:48;17.20;99.90
14188;DHT22;7175;51.978;5.330;2023-10-19T14:31:16;17.20;99.90
14188;DHT22;7175;51.978;5.330;2023-10-19T14:33:44;17.20;99.90
14188;DHT22;7175;51.978;5.330;2023-10-19T14:36:12;17.20;99.90
14188;DHT22;7175;51.978;5.330;2023-10-19T14:38:40;17.20;99.90
14188;DHT22;7175;51.978;5.330;2023-10-19T14:41:10;17.20;99.90
14188;DHT22;7175;51.978;5.330;2023-10-19T14:43:39;17.20;99.90
14188;DHT22;7175;51.978;5.330;2023-10-19T14:46:07;17.20;99.90
14188;DHT22;7175;51.978;5.330;2023-10-19T14:48:35;17.20;99.90
14188;DHT22;7175;51.978;5.330;2023-10-19T14:51:03;17.20;99.90
14188;DHT22;7175;51.978;5.330;2023-10-19T14:53:32;17.20;99.90
14188;DHT22;7175;51.978;5.330;2023-10-19T14:56:01;17.10;99.90
14188;DHT22;7175;51.978;5.330;2023-10-19T14:58:29;17.10;99.90
14188;DHT22;7175;51.978;5.330;2023-10-19T15:01:00;17.00;99.90
14188;DHT22;7175;51.978;5.330;2023-10-19T15:03:28;17.00;99.90
14188;DHT22;7175;51.978;5.330;2023-10-19T15:05:56;17.00;99.90
14188;DHT22;7175;51.978;5.330;2023-10-19T15:08:26;17.00;99.90
14188;DHT22;7175;51.978;5.330;2023-10-19T15:10:58;17.00;99.90
14188;DHT22;7175;51.978;5.330;2023-10-19T15:13:26;17.00;99.90
14188;DHT22;7175;51.978;5.330;2023-10-19T15:15:54;17.00;99.90
14188;DHT22;7175;51.978;5.330;2023-10-19T15:18:25;17.10;99.90
14188;DHT22;7175;51.978;5.330;2023-10-19T15:20:54;17.10;99.90
14188;DHT22;7175;51.978;5.330;2023-10-19T15:23:22;17.00;99.90
14188;DHT22;7175;51.978;5.330;2023-10-19T15:25:52;17.00;99.90
14188;DHT22;7175;51.978;5.330;2023-10-19T15:28:20;17.10;99.90
14188;DHT22;7175;51.978;5.330;2023-10-19T15:30:50;17.10;99.90
14188;DHT22;7175;51.978;5.330;2023-10-19T15:33:20;17.20;99.90
14188;DHT22;7175;51.978;5.330;2023-10-19T15:35:50;17.30;99.90
14188;DHT22;7175;51.978;5.330;2023-10-19T15:38:19;17.30;99.90
14188;DHT22;7175;51.978;5.330;2023-10-19T15:40:48;17.30;99.90
14188;DHT22;7175;51.978;5.330;2023-10-19T15:43:17;17.40;99.90
14188;DHT22;7175;51.978;5.330;2023-10-19T15:45:45;17.30;99.90
14188;DHT22;7175;51.978;5.330;2023-10-19T15:48:15;17.30;99.90
14188;DHT22;7175;51.978;5.330;2023-10-19T15:50:43;17.20;99.90
14188;DHT22;7175;51.978;5.330;2023-10-19T15:53:13;17.10;99.90
14188;DHT22;7175;51.978;5.330;2023-10-19T15:55:41;17.10;99.90
14188;DHT22;7175;51.978;5.330;2023-10-19T15:58:09;17.10;99.90
14188;DHT22;7175;51.978;5.330;2023-10-19T16:00:37;17.10;99.90
14188;DHT22;7175;51.978;5.330;2023-10-19T16:03:05;17.00;99.90
14188;DHT22;7175;51.978;5.330;2023-10-19T16:05:35;17.00;99.90